sensor_id;sensor_type;location;lat;lon;timestamp;P1;durP1;ratioP1;P2;durP2;ratioP2
29984;SDS011;17387;42.690;23.328;2023-07-24T00:01:37;12.00;;;9.13;;
29984;SDS011;17387;42.690;23.328;2023-07-24T00:07:08;12.85;;;9.32;;
29984;SDS011;17387;42.690;23.328;2023-07-24T00:09:33;11.97;;;9.57;;
29984;SDS011;17387;42.690;23.328;2023-07-24T00:11:58;13.25;;;9.65;;
29984;SDS011;17387;42.690;23.328;2023-07-24T00:14:24;11.80;;;9.90;;
29984;SDS011;17387;42.690;23.328;2023-07-24T00:16:49;14.65;;;9.65;;
29984;SDS011;17387;42.690;23.328;2023-07-24T00:19:14;11.68;;;9.27;;
29984;SDS011;17387;42.690;23.328;2023-07-24T00:21:39;12.43;;;9.77;;
29984;SDS011;17387;42.690;23.328;2023-07-24T00:24:05;13.57;;;9.13;;
29984;SDS011;17387;42.690;23.328;2023-07-24T00:26:30;13.50;;;9.45;;
29984;SDS011;17387;42.690;23.328;2023-07-24T00:28:55;12.67;;;9.47;;
29984;SDS011;17387;42.690;23.328;2023-07-24T00:31:20;12.60;;;9.33;;
29984;SDS011;17387;42.690;23.328;2023-07-24T00:33:46;13.17;;;9.23;;
29984;SDS011;17387;42.690;23.328;2023-07-24T00:36:11;11.73;;;9.27;;
29984;SDS011;17387;42.690;23.328;2023-07-24T00:38:36;13.57;;;9.07;;
29984;SDS011;17387;42.690;23.328;2023-07-24T00:41:01;15.97;;;10.50;;
29984;SDS011;17387;42.690;23.328;2023-07-24T00:43:26;14.43;;;10.33;;
29984;SDS011;17387;42.690;23.328;2023-07-24T00:45:52;13.57;;;10.13;;
29984;SDS011;17387;42.690;23.328;2023-07-24T00:48:18;12.70;;;10.13;;
29984;SDS011;17387;42.690;23.328;2023-07-24T00:50:43;12.10;;;8.77;;
29984;SDS011;17387;42.690;23.328;2023-07-24T00:53:10;14.65;;;10.20;;
29984;SDS011;17387;42.690;23.328;2023-07-24T00:55:36;13.30;;;10.20;;
29984;SDS011;17387;42.690;23.328;2023-07-24T00:58:01;13.43;;;10.32;;
29984;SDS011;17387;42.690;23.328;2023-07-24T01:00:28;11.35;;;9.57;;
29984;SDS011;17387;42.690;23.328;2023-07-24T01:02:53;15.43;;;9.88;;
29984;SDS011;17387;42.690;23.328;2023-07-24T01:05:19;16.15;;;9.82;;
29984;SDS011;17387;42.690;23.328;2023-07-24T01:07:44;13.30;;;9.77;;
29984;SDS011;17387;42.690;23.328;2023-07-24T01:10:10;14.18;;;9.82;;
29984;SDS011;17387;42.690;23.328;2023-07-24T01:12:36;12.48;;;9.55;;
29984;SDS011;17387;42.690;23.328;2023-07-24T01:15:09;12.25;;;9.93;;
29984;SDS011;17387;42.690;23.328;2023-07-24T01:17:39;13.75;;;10.35;;
29984;SDS011;17387;42.690;23.328;2023-07-24T01:20:06;14.65;;;9.52;;
29984;SDS011;17387;42.690;23.328;2023-07-24T01:22:47;16.85;;;9.73;;
29984;SDS011;17387;42.690;23.328;2023-07-24T01:27:45;14.18;;;10.23;;
29984;SDS011;17387;42.690;23.328;2023-07-24T01:30:10;15.40;;;9.80;;
29984;SDS011;17387;42.690;23.328;2023-07-24T01:32:36;15.50;;;9.93;;
29984;SDS011;17387;42.690;23.328;2023-07-24T01:35:02;13.90;;;9.95;;
29984;SDS011;17387;42.690;23.328;2023-07-24T01:37:27;13.80;;;9.68;;
29984;SDS011;17387;42.690;23.328;2023-07-24T01:39:53;13.77;;;9.82;;
29984;SDS011;17387;42.690;23.328;2023-07-24T01:42:18;12.23;;;9.25;;
29984;SDS011;17387;42.690;23.328;2023-07-24T01:44:44;13.43;;;9.18;;
29984;SDS011;17387;42.690;23.328;2023-07-24T01:47:09;12.40;;;9.77;;
29984;SDS011;17387;42.690;23.328;2023-07-24T01:49:34;13.23;;;9.18;;
29984;SDS011;17387;42.690;23.328;2023-07-24T01:51:59;13.13;;;9.60;;
29984;SDS011;17387;42.690;23.328;2023-07-24T01:54:25;12.75;;;9.30;;
29984;SDS011;17387;42.690;23.328;2023-07-24T01:56:50;12.18;;;9.23;;
29984;SDS011;17387;42.690;23.328;2023-07-24T01:59:15;12.40;;;9.48;;
29984;SDS011;17387;42.690;23.328;2023-07-24T02:01:41;12.40;;;10.07;;
29984;SDS011;17387;42.690;23.328;2023-07-24T02:04:06;14.48;;;9.98;;
29984;SDS011;17387;42.690;23.328;2023-07-24T02:06:32;12.50;;;10.07;;
29984;SDS011;17387;42.690;23.328;2023-07-24T02:08:57;12.93;;;9.33;;
29984;SDS011;17387;42.690;23.328;2023-07-24T02:11:22;12.53;;;9.67;;
29984;SDS011;17387;42.690;23.328;2023-07-24T02:13:47;13.13;;;10.03;;
29984;SDS011;17387;42.690;23.328;2023-07-24T02:16:13;12.30;;;9.53;;
29984;SDS011;17387;42.690;23.328;2023-07-24T02:18:38;13.48;;;9.77;;
29984;SDS011;17387;42.690;23.328;2023-07-24T02:21:04;14.68;;;9.52;;
29984;SDS011;17387;42.690;23.328;2023-07-24T02:23:29;12.00;;;9.33;;
29984;SDS011;17387;42.690;23.328;2023-07-24T02:25:54;12.43;;;9.57;;
29984;SDS011;17387;42.690;23.328;2023-07-24T02:28:22;13.23;;;9.73;;
29984;SDS011;17387;42.690;23.328;2023-07-24T02:30:50;13.90;;;10.20;;
29984;SDS011;17387;42.690;23.328;2023-07-24T02:33:17;12.80;;;9.85;;
29984;SDS011;17387;42.690;23.328;2023-07-24T02:35:42;12.90;;;9.70;;
29984;SDS011;17387;42.690;23.328;2023-07-24T02:38:07;14.48;;;9.80;;
29984;SDS011;17387;42.690;23.328;2023-07-24T02:40:33;17.63;;;10.50;;
29984;SDS011;17387;42.690;23.328;2023-07-24T02:42:58;14.80;;;9.95;;
29984;SDS011;17387;42.690;23.328;2023-07-24T02:45:24;16.15;;;10.98;;
29984;SDS011;17387;42.690;23.328;2023-07-24T02:47:49;13.55;;;10.45;;
29984;SDS011;17387;42.690;23.328;2023-07-24T02:50:14;14.83;;;10.20;;
29984;SDS011;17387;42.690;23.328;2023-07-24T02:52:40;15.25;;;10.27;;
29984;SDS011;17387;42.690;23.328;2023-07-24T02:55:05;13.82;;;9.55;;
29984;SDS011;17387;42.690;23.328;2023-07-24T02:57:30;13.95;;;9.40;;
29984;SDS011;17387;42.690;23.328;2023-07-24T02:59:55;14.83;;;10.07;;
29984;SDS011;17387;42.690;23.328;2023-07-24T03:02:21;12.83;;;10.10;;
29984;SDS011;17387;42.690;23.328;2023-07-24T03:04:46;15.93;;;9.82;;
29984;SDS011;17387;42.690;23.328;2023-07-24T03:07:11;13.30;;;9.43;;
29984;SDS011;17387;42.690;23.328;2023-07-24T03:09:36;13.63;;;9.67;;
29984;SDS011;17387;42.690;23.328;2023-07-24T03:12:01;14.67;;;10.37;;
29984;SDS011;17387;42.690;23.328;2023-07-24T03:14:27;12.98;;;9.70;;
29984;SDS011;17387;42.690;23.328;2023-07-24T03:16:52;16.50;;;10.03;;
29984;SDS011;17387;42.690;23.328;2023-07-24T03:19:17;15.63;;;10.00;;
29984;SDS011;17387;42.690;23.328;2023-07-24T03:21:44;15.00;;;10.10;;
29984;SDS011;17387;42.690;23.328;2023-07-24T03:24:10;14.17;;;9.73;;
29984;SDS011;17387;42.690;23.328;2023-07-24T03:26:35;14.20;;;10.03;;
29984;SDS011;17387;42.690;23.328;2023-07-24T03:29:00;14.30;;;10.10;;
29984;SDS011;17387;42.690;23.328;2023-07-24T03:31:26;15.15;;;10.77;;
29984;SDS011;17387;42.690;23.328;2023-07-24T03:33:51;15.23;;;10.20;;
29984;SDS011;17387;42.690;23.328;2023-07-24T03:36:16;15.40;;;9.83;;
29984;SDS011;17387;42.690;23.328;2023-07-24T03:38:41;13.47;;;9.77;;
29984;SDS011;17387;42.690;23.328;2023-07-24T03:41:06;16.20;;;10.27;;
29984;SDS011;17387;42.690;23.328;2023-07-24T03:43:32;13.35;;;9.75;;
29984;SDS011;17387;42.690;23.328;2023-07-24T03:45:57;15.00;;;10.13;;
29984;SDS011;17387;42.690;23.328;2023-07-24T03:48:22;14.38;;;10.55;;
29984;SDS011;17387;42.690;23.328;2023-07-24T03:50:49;14.18;;;10.77;;
29984;SDS011;17387;42.690;23.328;2023-07-24T03:53:14;14.73;;;9.93;;
29984;SDS011;17387;42.690;23.328;2023-07-24T03:55:39;15.50;;;11.23;;
29984;SDS011;17387;42.690;23.328;2023-07-24T03:58:05;17.33;;;10.48;;
29984;SDS011;17387;42.690;23.328;2023-07-24T04:00:30;14.95;;;11.00;;
29984;SDS011;17387;42.690;23.328;2023-07-24T04:02:55;15.77;;;10.70;;
29984;SDS011;17387;42.690;23.328;2023-07-24T04:05:20;15.80;;;11.32;;
29984;SDS011;17387;42.690;23.328;2023-07-24T04:07:46;17.20;;;10.23;;
29984;SDS011;17387;42.690;23.328;2023-07-24T04:10:11;16.27;;;10.90;;
29984;SDS011;17387;42.690;23.328;2023-07-24T04:12:36;16.13;;;10.13;;
29984;SDS011;17387;42.690;23.328;2023-07-24T04:15:02;16.75;;;11.25;;
29984;SDS011;17387;42.690;23.328;2023-07-24T04:17:27;17.80;;;11.52;;
29984;SDS011;17387;42.690;23.328;2023-07-24T04:19:52;16.52;;;11.88;;
29984;SDS011;17387;42.690;23.328;2023-07-24T04:22:17;16.52;;;10.75;;
29984;SDS011;17387;42.690;23.328;2023-07-24T04:24:43;16.55;;;11.05;;
29984;SDS011;17387;42.690;23.328;2023-07-24T04:27:08;19.50;;;11.23;;
29984;SDS011;17387;42.690;23.328;2023-07-24T04:29:33;21.23;;;12.83;;
29984;SDS011;17387;42.690;23.328;2023-07-24T04:31:58;21.10;;;11.95;;
29984;SDS011;17387;42.690;23.328;2023-07-24T04:34:24;21.83;;;12.82;;
29984;SDS011;17387;42.690;23.328;2023-07-24T04:36:49;18.30;;;12.57;;
29984;SDS011;17387;42.690;23.328;2023-07-24T04:39:14;21.40;;;13.43;;
29984;SDS011;17387;42.690;23.328;2023-07-24T04:41:39;19.98;;;13.45;;
29984;SDS011;17387;42.690;23.328;2023-07-24T04:44:05;19.93;;;12.90;;
29984;SDS011;17387;42.690;23.328;2023-07-24T04:46:30;23.13;;;13.53;;
29984;SDS011;17387;42.690;23.328;2023-07-24T04:48:55;21.27;;;14.00;;
29984;SDS011;17387;42.690;23.328;2023-07-24T04:51:20;19.00;;;12.60;;
29984;SDS011;17387;42.690;23.328;2023-07-24T04:53:46;20.30;;;14.07;;
29984;SDS011;17387;42.690;23.328;2023-07-24T04:56:11;24.33;;;15.37;;
29984;SDS011;17387;42.690;23.328;2023-07-24T04:58:36;21.35;;;14.02;;
29984;SDS011;17387;42.690;23.328;2023-07-24T05:01:02;20.20;;;13.77;;
29984;SDS011;17387;42.690;23.328;2023-07-24T05:03:28;21.40;;;13.55;;
29984;SDS011;17387;42.690;23.328;2023-07-24T05:05:56;21.93;;;13.70;;
29984;SDS011;17387;42.690;23.328;2023-07-24T05:08:21;20.83;;;13.90;;
29984;SDS011;17387;42.690;23.328;2023-07-24T05:10:47;20.30;;;12.85;;
29984;SDS011;17387;42.690;23.328;2023-07-24T05:13:12;19.02;;;13.55;;
29984;SDS011;17387;42.690;23.328;2023-07-24T05:15:37;17.20;;;11.60;;
29984;SDS011;17387;42.690;23.328;2023-07-24T05:18:02;18.37;;;12.00;;
29984;SDS011;17387;42.690;23.328;2023-07-24T05:20:28;20.40;;;12.90;;
29984;SDS011;17387;42.690;23.328;2023-07-24T05:22:53;20.77;;;12.27;;
29984;SDS011;17387;42.690;23.328;2023-07-24T05:25:18;21.40;;;12.33;;
29984;SDS011;17387;42.690;23.328;2023-07-24T05:27:43;20.20;;;12.93;;
29984;SDS011;17387;42.690;23.328;2023-07-24T05:30:09;22.10;;;12.10;;
29984;SDS011;17387;42.690;23.328;2023-07-24T05:32:34;19.45;;;13.00;;
29984;SDS011;17387;42.690;23.328;2023-07-24T05:34:59;19.95;;;12.38;;
29984;SDS011;17387;42.690;23.328;2023-07-24T05:37:24;18.53;;;12.60;;
29984;SDS011;17387;42.690;23.328;2023-07-24T05:39:50;23.27;;;13.60;;
29984;SDS011;17387;42.690;23.328;2023-07-24T05:42:16;18.02;;;12.43;;
29984;SDS011;17387;42.690;23.328;2023-07-24T05:44:41;20.92;;;13.57;;
29984;SDS011;17387;42.690;23.328;2023-07-24T05:47:06;23.33;;;12.97;;
29984;SDS011;17387;42.690;23.328;2023-07-24T05:49:31;20.43;;;12.17;;
29984;SDS011;17387;42.690;23.328;2023-07-24T05:51:57;19.97;;;12.00;;
29984;SDS011;17387;42.690;23.328;2023-07-24T05:54:22;19.25;;;11.88;;
29984;SDS011;17387;42.690;23.328;2023-07-24T05:56:47;18.63;;;11.80;;
29984;SDS011;17387;42.690;23.328;2023-07-24T05:59:13;17.25;;;12.20;;
29984;SDS011;17387;42.690;23.328;2023-07-24T06:01:38;20.57;;;12.10;;
29984;SDS011;17387;42.690;23.328;2023-07-24T06:04:03;20.92;;;12.85;;
29984;SDS011;17387;42.690;23.328;2023-07-24T06:06:30;19.83;;;12.40;;
29984;SDS011;17387;42.690;23.328;2023-07-24T06:08:58;17.50;;;11.77;;
29984;SDS011;17387;42.690;23.328;2023-07-24T06:11:26;18.80;;;11.73;;
29984;SDS011;17387;42.690;23.328;2023-07-24T06:13:52;17.63;;;10.68;;
29984;SDS011;17387;42.690;23.328;2023-07-24T06:16:20;16.58;;;11.55;;
29984;SDS011;17387;42.690;23.328;2023-07-24T06:18:45;15.95;;;10.00;;
29984;SDS011;17387;42.690;23.328;2023-07-24T06:21:11;14.20;;;9.95;;
29984;SDS011;17387;42.690;23.328;2023-07-24T06:23:36;13.03;;;10.50;;
29984;SDS011;17387;42.690;23.328;2023-07-24T06:26:01;13.75;;;9.63;;
29984;SDS011;17387;42.690;23.328;2023-07-24T06:28:26;14.07;;;9.88;;
29984;SDS011;17387;42.690;23.328;2023-07-24T06:30:53;17.92;;;10.23;;
29984;SDS011;17387;42.690;23.328;2023-07-24T06:33:19;14.05;;;9.63;;
29984;SDS011;17387;42.690;23.328;2023-07-24T06:35:44;15.50;;;10.18;;
29984;SDS011;17387;42.690;23.328;2023-07-24T06:38:09;15.55;;;9.77;;
29984;SDS011;17387;42.690;23.328;2023-07-24T06:40:35;13.40;;;9.43;;
29984;SDS011;17387;42.690;23.328;2023-07-24T06:43:00;13.25;;;8.80;;
29984;SDS011;17387;42.690;23.328;2023-07-24T06:45:25;13.30;;;9.73;;
29984;SDS011;17387;42.690;23.328;2023-07-24T06:47:50;13.47;;;10.13;;
29984;SDS011;17387;42.690;23.328;2023-07-24T06:50:16;17.45;;;12.45;;
29984;SDS011;17387;42.690;23.328;2023-07-24T06:52:41;13.98;;;10.05;;
29984;SDS011;17387;42.690;23.328;2023-07-24T06:55:06;18.95;;;11.93;;
29984;SDS011;17387;42.690;23.328;2023-07-24T06:57:32;18.35;;;12.10;;
29984;SDS011;17387;42.690;23.328;2023-07-24T06:59:57;23.52;;;13.93;;
29984;SDS011;17387;42.690;23.328;2023-07-24T07:02:22;24.47;;;15.03;;
29984;SDS011;17387;42.690;23.328;2023-07-24T07:04:47;16.03;;;10.17;;
29984;SDS011;17387;42.690;23.328;2023-07-24T07:07:13;12.88;;;8.73;;
29984;SDS011;17387;42.690;23.328;2023-07-24T07:09:38;15.80;;;12.63;;
29984;SDS011;17387;42.690;23.328;2023-07-24T07:12:03;13.40;;;9.57;;
29984;SDS011;17387;42.690;23.328;2023-07-24T07:14:29;15.38;;;10.30;;
29984;SDS011;17387;42.690;23.328;2023-07-24T07:16:54;14.77;;;9.63;;
29984;SDS011;17387;42.690;23.328;2023-07-24T07:19:19;13.77;;;9.70;;
29984;SDS011;17387;42.690;23.328;2023-07-24T07:21:44;13.73;;;10.30;;
29984;SDS011;17387;42.690;23.328;2023-07-24T07:24:10;16.63;;;11.70;;
29984;SDS011;17387;42.690;23.328;2023-07-24T07:26:35;13.90;;;10.53;;
29984;SDS011;17387;42.690;23.328;2023-07-24T07:29:00;17.50;;;10.00;;
29984;SDS011;17387;42.690;23.328;2023-07-24T07:31:25;15.63;;;10.77;;
29984;SDS011;17387;42.690;23.328;2023-07-24T07:33:51;17.33;;;9.87;;
29984;SDS011;17387;42.690;23.328;2023-07-24T07:36:16;15.40;;;10.07;;
29984;SDS011;17387;42.690;23.328;2023-07-24T07:38:42;17.08;;;10.10;;
29984;SDS011;17387;42.690;23.328;2023-07-24T07:41:08;14.65;;;9.63;;
29984;SDS011;17387;42.690;23.328;2023-07-24T07:43:33;17.95;;;10.70;;
29984;SDS011;17387;42.690;23.328;2023-07-24T07:45:59;14.60;;;9.98;;
29984;SDS011;17387;42.690;23.328;2023-07-24T07:48:25;22.08;;;12.00;;
29984;SDS011;17387;42.690;23.328;2023-07-24T07:50:53;16.27;;;10.07;;
29984;SDS011;17387;42.690;23.328;2023-07-24T07:53:18;17.40;;;10.32;;
29984;SDS011;17387;42.690;23.328;2023-07-24T07:55:43;16.43;;;10.73;;
29984;SDS011;17387;42.690;23.328;2023-07-24T07:58:09;16.33;;;10.40;;
29984;SDS011;17387;42.690;23.328;2023-07-24T08:00:34;17.47;;;10.60;;
29984;SDS011;17387;42.690;23.328;2023-07-24T08:02:59;16.77;;;10.82;;
29984;SDS011;17387;42.690;23.328;2023-07-24T08:05:24;16.73;;;11.40;;
29984;SDS011;17387;42.690;23.328;2023-07-24T08:07:50;16.40;;;10.97;;
29984;SDS011;17387;42.690;23.328;2023-07-24T08:10:15;18.63;;;12.30;;
29984;SDS011;17387;42.690;23.328;2023-07-24T08:12:41;28.55;;;14.82;;
29984;SDS011;17387;42.690;23.328;2023-07-24T08:15:07;21.65;;;14.40;;
29984;SDS011;17387;42.690;23.328;2023-07-24T08:17:32;15.50;;;11.20;;
29984;SDS011;17387;42.690;23.328;2023-07-24T08:19:58;20.57;;;11.10;;
29984;SDS011;17387;42.690;23.328;2023-07-24T08:22:23;16.17;;;11.60;;
29984;SDS011;17387;42.690;23.328;2023-07-24T08:24:49;17.10;;;11.23;;
29984;SDS011;17387;42.690;23.328;2023-07-24T08:27:16;37.08;;;14.63;;
29984;SDS011;17387;42.690;23.328;2023-07-24T08:29:41;28.30;;;14.97;;
29984;SDS011;17387;42.690;23.328;2023-07-24T08:32:06;19.90;;;12.00;;
29984;SDS011;17387;42.690;23.328;2023-07-24T08:34:32;14.93;;;11.05;;
29984;SDS011;17387;42.690;23.328;2023-07-24T08:36:57;21.48;;;10.80;;
29984;SDS011;17387;42.690;23.328;2023-07-24T08:39:22;17.08;;;10.68;;
29984;SDS011;17387;42.690;23.328;2023-07-24T08:41:48;17.42;;;11.20;;
29984;SDS011;17387;42.690;23.328;2023-07-24T08:44:13;19.13;;;11.43;;
29984;SDS011;17387;42.690;23.328;2023-07-24T08:46:38;25.27;;;15.45;;
29984;SDS011;17387;42.690;23.328;2023-07-24T08:49:06;20.55;;;11.73;;
29984;SDS011;17387;42.690;23.328;2023-07-24T08:51:31;30.20;;;21.02;;
29984;SDS011;17387;42.690;23.328;2023-07-24T08:53:57;18.33;;;11.65;;
29984;SDS011;17387;42.690;23.328;2023-07-24T08:56:24;19.02;;;11.88;;
29984;SDS011;17387;42.690;23.328;2023-07-24T08:58:49;18.98;;;12.20;;
29984;SDS011;17387;42.690;23.328;2023-07-24T09:01:14;16.90;;;11.20;;
29984;SDS011;17387;42.690;23.328;2023-07-24T09:03:40;31.98;;;22.65;;
29984;SDS011;17387;42.690;23.328;2023-07-24T09:06:05;22.17;;;12.20;;
29984;SDS011;17387;42.690;23.328;2023-07-24T09:08:33;17.25;;;11.25;;
29984;SDS011;17387;42.690;23.328;2023-07-24T09:10:59;25.27;;;12.27;;
29984;SDS011;17387;42.690;23.328;2023-07-24T09:13:25;19.88;;;12.20;;
29984;SDS011;17387;42.690;23.328;2023-07-24T09:15:50;29.23;;;18.23;;
29984;SDS011;17387;42.690;23.328;2023-07-24T09:18:15;22.33;;;12.95;;
29984;SDS011;17387;42.690;23.328;2023-07-24T09:20:43;18.45;;;12.52;;
29984;SDS011;17387;42.690;23.328;2023-07-24T09:23:09;23.10;;;11.65;;
29984;SDS011;17387;42.690;23.328;2023-07-24T09:25:36;22.38;;;12.50;;
29984;SDS011;17387;42.690;23.328;2023-07-24T09:28:14;23.02;;;11.98;;
29984;SDS011;17387;42.690;23.328;2023-07-24T09:30:39;21.10;;;12.68;;
29984;SDS011;17387;42.690;23.328;2023-07-24T09:33:05;20.85;;;11.85;;
29984;SDS011;17387;42.690;23.328;2023-07-24T09:35:30;19.63;;;11.70;;
29984;SDS011;17387;42.690;23.328;2023-07-24T09:40:47;20.33;;;13.48;;
29984;SDS011;17387;42.690;23.328;2023-07-24T09:45:43;17.23;;;11.63;;
29984;SDS011;17387;42.690;23.328;2023-07-24T09:48:09;19.98;;;11.15;;
29984;SDS011;17387;42.690;23.328;2023-07-24T09:50:37;19.67;;;11.98;;
29984;SDS011;17387;42.690;23.328;2023-07-24T09:53:03;21.35;;;12.02;;
29984;SDS011;17387;42.690;23.328;2023-07-24T09:55:40;19.42;;;11.80;;
29984;SDS011;17387;42.690;23.328;2023-07-24T09:58:07;17.77;;;12.02;;
29984;SDS011;17387;42.690;23.328;2023-07-24T10:00:32;17.58;;;10.95;;
29984;SDS011;17387;42.690;23.328;2023-07-24T10:02:58;22.05;;;12.23;;
29984;SDS011;17387;42.690;23.328;2023-07-24T10:05:23;17.67;;;12.45;;
29984;SDS011;17387;42.690;23.328;2023-07-24T10:07:49;19.63;;;11.83;;
29984;SDS011;17387;42.690;23.328;2023-07-24T10:10:15;18.95;;;12.00;;
29984;SDS011;17387;42.690;23.328;2023-07-24T10:12:41;20.90;;;13.35;;
29984;SDS011;17387;42.690;23.328;2023-07-24T10:15:07;25.50;;;12.82;;
29984;SDS011;17387;42.690;23.328;2023-07-24T10:17:36;25.40;;;11.23;;
29984;SDS011;17387;42.690;23.328;2023-07-24T10:20:05;26.23;;;15.02;;
29984;SDS011;17387;42.690;23.328;2023-07-24T10:22:33;22.40;;;12.85;;
29984;SDS011;17387;42.690;23.328;2023-07-24T10:24:59;24.67;;;12.95;;
29984;SDS011;17387;42.690;23.328;2023-07-24T10:27:24;24.07;;;12.47;;
29984;SDS011;17387;42.690;23.328;2023-07-24T10:30:00;20.10;;;11.95;;
29984;SDS011;17387;42.690;23.328;2023-07-24T10:32:25;21.75;;;11.40;;
29984;SDS011;17387;42.690;23.328;2023-07-24T10:35:00;22.57;;;12.43;;
29984;SDS011;17387;42.690;23.328;2023-07-24T10:37:31;17.03;;;11.10;;
29984;SDS011;17387;42.690;23.328;2023-07-24T10:40:00;16.42;;;10.70;;
29984;SDS011;17387;42.690;23.328;2023-07-24T10:42:25;17.63;;;11.20;;
29984;SDS011;17387;42.690;23.328;2023-07-24T10:45:01;20.07;;;11.30;;
29984;SDS011;17387;42.690;23.328;2023-07-24T10:47:26;20.50;;;11.32;;
29984;SDS011;17387;42.690;23.328;2023-07-24T10:49:51;24.27;;;12.47;;
29984;SDS011;17387;42.690;23.328;2023-07-24T10:52:17;20.90;;;11.80;;
29984;SDS011;17387;42.690;23.328;2023-07-24T10:54:42;24.37;;;11.80;;
29984;SDS011;17387;42.690;23.328;2023-07-24T10:57:07;17.97;;;9.83;;
29984;SDS011;17387;42.690;23.328;2023-07-24T10:59:38;15.70;;;9.33;;
29984;SDS011;17387;42.690;23.328;2023-07-24T11:02:04;14.05;;;8.60;;
29984;SDS011;17387;42.690;23.328;2023-07-24T11:04:29;17.98;;;10.00;;
29984;SDS011;17387;42.690;23.328;2023-07-24T11:06:55;15.13;;;8.30;;
29984;SDS011;17387;42.690;23.328;2023-07-24T11:09:38;15.60;;;7.95;;
29984;SDS011;17387;42.690;23.328;2023-07-24T11:12:12;14.32;;;8.25;;
29984;SDS011;17387;42.690;23.328;2023-07-24T11:14:50;16.10;;;9.45;;
29984;SDS011;17387;42.690;23.328;2023-07-24T11:17:16;14.60;;;8.10;;
29984;SDS011;17387;42.690;23.328;2023-07-24T11:19:41;13.27;;;7.97;;
29984;SDS011;17387;42.690;23.328;2023-07-24T11:22:07;16.87;;;8.83;;
29984;SDS011;17387;42.690;23.328;2023-07-24T11:24:32;14.30;;;8.77;;
29984;SDS011;17387;42.690;23.328;2023-07-24T11:26:57;14.10;;;8.17;;
29984;SDS011;17387;42.690;23.328;2023-07-24T11:29:23;20.33;;;8.67;;
29984;SDS011;17387;42.690;23.328;2023-07-24T11:31:53;15.32;;;8.93;;
29984;SDS011;17387;42.690;23.328;2023-07-24T11:34:18;16.05;;;8.65;;
29984;SDS011;17387;42.690;23.328;2023-07-24T11:36:43;15.53;;;8.40;;
29984;SDS011;17387;42.690;23.328;2023-07-24T11:39:09;16.27;;;8.38;;
29984;SDS011;17387;42.690;23.328;2023-07-24T11:41:34;16.47;;;8.97;;
29984;SDS011;17387;42.690;23.328;2023-07-24T11:44:02;14.67;;;9.10;;
29984;SDS011;17387;42.690;23.328;2023-07-24T11:46:28;14.77;;;9.32;;
29984;SDS011;17387;42.690;23.328;2023-07-24T11:48:56;15.57;;;9.48;;
29984;SDS011;17387;42.690;23.328;2023-07-24T11:51:22;13.40;;;8.82;;
29984;SDS011;17387;42.690;23.328;2023-07-24T11:53:51;15.32;;;9.20;;
29984;SDS011;17387;42.690;23.328;2023-07-24T11:56:19;13.52;;;9.98;;
29984;SDS011;17387;42.690;23.328;2023-07-24T11:58:44;13.68;;;9.55;;
29984;SDS011;17387;42.690;23.328;2023-07-24T12:01:10;15.87;;;9.53;;
29984;SDS011;17387;42.690;23.328;2023-07-24T12:03:37;15.40;;;9.20;;
29984;SDS011;17387;42.690;23.328;2023-07-24T12:06:05;17.00;;;9.55;;
29984;SDS011;17387;42.690;23.328;2023-07-24T12:08:31;13.73;;;9.03;;
29984;SDS011;17387;42.690;23.328;2023-07-24T12:10:57;13.95;;;9.18;;
29984;SDS011;17387;42.690;23.328;2023-07-24T12:13:25;15.93;;;9.50;;
29984;SDS011;17387;42.690;23.328;2023-07-24T12:15:50;15.20;;;9.32;;
29984;SDS011;17387;42.690;23.328;2023-07-24T12:18:16;17.67;;;9.48;;
29984;SDS011;17387;42.690;23.328;2023-07-24T12:20:43;15.15;;;8.82;;
29984;SDS011;17387;42.690;23.328;2023-07-24T12:23:09;18.27;;;8.57;;
29984;SDS011;17387;42.690;23.328;2023-07-24T12:25:34;16.42;;;9.02;;
29984;SDS011;17387;42.690;23.328;2023-07-24T12:27:59;14.32;;;9.15;;
29984;SDS011;17387;42.690;23.328;2023-07-24T12:30:25;13.50;;;8.67;;
29984;SDS011;17387;42.690;23.328;2023-07-24T12:32:50;17.35;;;8.73;;
29984;SDS011;17387;42.690;23.328;2023-07-24T12:35:16;15.97;;;9.30;;
29984;SDS011;17387;42.690;23.328;2023-07-24T12:37:42;14.30;;;8.80;;
29984;SDS011;17387;42.690;23.328;2023-07-24T12:40:08;13.23;;;8.73;;
29984;SDS011;17387;42.690;23.328;2023-07-24T12:42:33;15.20;;;9.40;;
29984;SDS011;17387;42.690;23.328;2023-07-24T12:44:59;12.30;;;8.73;;
29984;SDS011;17387;42.690;23.328;2023-07-24T12:47:41;11.60;;;8.73;;
29984;SDS011;17387;42.690;23.328;2023-07-24T12:50:06;12.95;;;8.90;;
29984;SDS011;17387;42.690;23.328;2023-07-24T12:52:32;14.68;;;8.98;;
29984;SDS011;17387;42.690;23.328;2023-07-24T12:54:57;13.37;;;9.37;;
29984;SDS011;17387;42.690;23.328;2023-07-24T12:57:22;12.70;;;9.03;;
29984;SDS011;17387;42.690;23.328;2023-07-24T12:59:48;14.67;;;9.83;;
29984;SDS011;17387;42.690;23.328;2023-07-24T13:02:13;16.95;;;8.82;;
29984;SDS011;17387;42.690;23.328;2023-07-24T13:04:38;13.77;;;8.95;;
29984;SDS011;17387;42.690;23.328;2023-07-24T13:07:04;11.30;;;8.25;;
29984;SDS011;17387;42.690;23.328;2023-07-24T13:09:29;12.52;;;9.07;;
29984;SDS011;17387;42.690;23.328;2023-07-24T13:11:55;11.40;;;8.60;;
29984;SDS011;17387;42.690;23.328;2023-07-24T13:14:20;11.77;;;8.95;;
29984;SDS011;17387;42.690;23.328;2023-07-24T13:16:46;13.45;;;8.93;;
29984;SDS011;17387;42.690;23.328;2023-07-24T13:19:11;15.23;;;9.20;;
29984;SDS011;17387;42.690;23.328;2023-07-24T13:21:37;12.27;;;8.43;;
29984;SDS011;17387;42.690;23.328;2023-07-24T13:24:02;14.38;;;8.60;;
29984;SDS011;17387;42.690;23.328;2023-07-24T13:26:27;11.32;;;9.02;;
29984;SDS011;17387;42.690;23.328;2023-07-24T13:28:53;13.37;;;9.20;;
29984;SDS011;17387;42.690;23.328;2023-07-24T13:31:19;16.42;;;9.45;;
29984;SDS011;17387;42.690;23.328;2023-07-24T13:33:45;12.73;;;8.68;;
29984;SDS011;17387;42.690;23.328;2023-07-24T13:36:10;14.20;;;8.65;;
29984;SDS011;17387;42.690;23.328;2023-07-24T13:38:35;14.45;;;9.38;;
29984;SDS011;17387;42.690;23.328;2023-07-24T13:41:01;15.70;;;9.47;;
29984;SDS011;17387;42.690;23.328;2023-07-24T13:43:26;15.02;;;8.75;;
29984;SDS011;17387;42.690;23.328;2023-07-24T13:45:51;13.13;;;9.50;;
29984;SDS011;17387;42.690;23.328;2023-07-24T13:48:18;11.68;;;8.80;;
29984;SDS011;17387;42.690;23.328;2023-07-24T13:50:43;11.77;;;9.20;;
29984;SDS011;17387;42.690;23.328;2023-07-24T13:53:08;14.13;;;9.63;;
29984;SDS011;17387;42.690;23.328;2023-07-24T13:55:34;13.75;;;9.07;;
29984;SDS011;17387;42.690;23.328;2023-07-24T13:57:59;11.63;;;9.03;;
29984;SDS011;17387;42.690;23.328;2023-07-24T14:00:24;12.83;;;9.60;;
29984;SDS011;17387;42.690;23.328;2023-07-24T14:02:50;14.50;;;10.07;;
29984;SDS011;17387;42.690;23.328;2023-07-24T14:05:15;11.57;;;10.10;;
29984;SDS011;17387;42.690;23.328;2023-07-24T14:07:41;14.27;;;10.15;;
29984;SDS011;17387;42.690;23.328;2023-07-24T14:10:12;15.25;;;9.80;;
29984;SDS011;17387;42.690;23.328;2023-07-24T14:12:37;16.08;;;10.48;;
29984;SDS011;17387;42.690;23.328;2023-07-24T14:15:13;13.73;;;10.20;;
29984;SDS011;17387;42.690;23.328;2023-07-24T14:17:38;13.07;;;10.20;;